Daikoku — JD3247 — position and weather

sailwx.info

Track history (hours):
 
Tides and Currents Weather Stations Pressure Air Temp Water Temp Dewpoint Dewpoint Depression Visibility Wind Speed Wind Dir Waves Ship Positions

Daikoku

Last reported at 2015-Sep-02 16:30 UTC. Time now 2015-Sep-03 12:57 UTC.
Position N 33°58' E 130°41'.

Length 95 m; draft 3.8 m.

Type: Cargo ship. MMSI: 431003009.

Date/timePositionNaut miles runAvg speedWind from/ knotsBaromVisibWave heightAir tempDewpointWater temp
2015-Sep-02 16:30N 33°58' E 130°41'1512.6
2015-Sep-02 15:17N 33°54' E 130°23'1013.1
2015-Sep-02 14:33N 33°46' E 130°18'8 8.4
2015-Sep-02 13:33N 33°39' E 130°23'1 1.1
2015-Sep-02 12:33N 33°39' E 130°25'0 0.0
2015-Sep-02 11:33N 33°39' E 130°25'1 1.0
2015-Sep-02 10:33N 33°39' E 130°23'8 8.2
2015-Sep-02 09:32N 33°46' E 130°17'242 5.1
2015-Aug-31 10:32N 34°26' E 135°05'1413.9
2015-Aug-31 09:33N 34°36' E 135°16'4 4.2
2015-Aug-31 08:29N 34°41' E 135°17'0 0.0
2015-Aug-31 07:33N 34°41' E 135°17'2 2.2
2015-Aug-31 06:28N 34°39' E 135°15'2 0.4
2015-Aug-31 00:25N 34°37' E 135°15'0 0.2
2015-Aug-30 23:33N 34°37' E 135°15'0 0.0
2015-Aug-30 22:33N 34°37' E 135°15'0 0.0
2015-Aug-30 21:15N 34°37' E 135°15'0 0.0
2015-Aug-30 20:33N 34°37' E 135°15'0 0.0
2015-Aug-30 19:33N 34°37' E 135°15'  
Track history (hours):
 
Tides and Currents Weather Stations Pressure Air Temp Water Temp Dewpoint Dewpoint Depression Visibility Wind Speed Wind Dir Waves Ship Positions

Daikoku

Last reported at 2015-Sep-02 16:30 UTC. Time now 2015-Sep-03 12:57 UTC.
Position N 33°58' E 130°41'.

Length 95 m; draft 3.8 m.

Type: Cargo ship. MMSI: 431003009.

Date/timePositionNaut miles runAvg speedWind from/ knotsBaromVisibWave heightAir tempDewpointWater temp
2015-Sep-02 16:30N 33°58' E 130°41'1512.6
2015-Sep-02 15:17N 33°54' E 130°23'1013.1
2015-Sep-02 14:33N 33°46' E 130°18'8 8.4
2015-Sep-02 13:33N 33°39' E 130°23'1 1.1
2015-Sep-02 12:33N 33°39' E 130°25'0 0.0
2015-Sep-02 11:33N 33°39' E 130°25'1 1.0
2015-Sep-02 10:33N 33°39' E 130°23'8 8.2
2015-Sep-02 09:32N 33°46' E 130°17'242 5.1
2015-Aug-31 10:32N 34°26' E 135°05'1413.9
2015-Aug-31 09:33N 34°36' E 135°16'4 4.2
2015-Aug-31 08:29N 34°41' E 135°17'0 0.0
2015-Aug-31 07:33N 34°41' E 135°17'2 2.2
2015-Aug-31 06:28N 34°39' E 135°15'2 0.4
2015-Aug-31 00:25N 34°37' E 135°15'0 0.2
2015-Aug-30 23:33N 34°37' E 135°15'0 0.0
2015-Aug-30 22:33N 34°37' E 135°15'0 0.0
2015-Aug-30 21:15N 34°37' E 135°15'0 0.0
2015-Aug-30 20:33N 34°37' E 135°15'0 0.0
2015-Aug-30 19:33N 34°37' E 135°15'  

Dump ship's entire track history